Aeroporto :
LOGIN :

Iscrizione | Disclaimer

   EN    FR    IT 

 










Sommario :    VFR   VFR Marginale   IFR   IFR Intensivo   IFR Molto Intensivo
Visibilità : 
Base nubi : 
>= 8 km
>= 3000ft
5 / 8 km
1000 / 3000 ft
1500m / 5 km
500 / 1000 ft
800 / 1500m
200 / 500 ft
< 800m
< 200 ft
Simboli :   Temporali  Nebbia  Neve Forte  Precipitazioni Forti  Vento > 20 kt
SIGMETs :   Varie  Temporali  Ghiacco  Turbolenza  Onda orograficha  Ceneri Vulcaniche






- Altitudine del aeroporto : 231 ft
- Codice IATA : WTN


EGXW - RAF Waddington

ULTIMO METAR :
  • 202350Z AUTO 17013KT 9999 FEW029/// BKN045/// 13/12 Q0998

METARs OBSOLETI :
  • 202250Z AUTO 16011KT 9999 FEW050/// SCT080/// 13/12 Q0998 RERA
  • 202150Z AUTO 16013KT 4800 RA SCT024/// BKN046/// 13/12 Q0998

TAF TAF EGXW
Valido dal 20 a 15 ore il 21 a 09 ore UTC


201329Z 2015/2109 19015KT 9999 FEW020 BKN040
TEMPO 2015/2017 19016G26KT
BECMG 2018/2021 15012KT
BECMG 2022/2101 BKN008
BECMG 2101/2103 6000 -RA BKN004
PROB40 2103/2109 3000 RA BKN002
PROB30 2106/2109 2000 RADZ OVC001



MetMap, La meteo Aeronautica in un colpo d'occhio ! - Copyright ORBIFLY Dicembre 2007 - Disclaimer

ORBIFLY MET'MAP TEAM :

Programmazione e sviluppo : Alexandra Zaïnal
Concezione : Baudouin d'Aumeries
Aiuto per la programmazione : Marc-Olivier Méhu
Supporto tecnico e logistico : Manuel Goepfert
Aiuto per la traduzione : Arnaldo La Scala

Contatto : metmap@orbifly.com




FONTI E CREDITI :

   NOAA